Arctic Taglu — CY8968 — position and weather

sailwx.info

Track history (hours):
 
Tides and Currents Weather Stations Pressure Air Temp Water Temp Dewpoint Dewpoint Depression Visibility Wind Speed Wind Dir Waves Ship Positions

Arctic Taglu

Last reported at 2017-Oct-18 00:00 UTC. Time now 2017-Oct-18 00:26 UTC.
Position N 49°13' W 122°50'.

Length 33 m; draft 6 m.

Type: Tug. MMSI: 316003483.

Date/timePositionNaut miles runAvg speedWind from/ knotsBaromVisibWave heightAir tempDewpointWater temp
2017-Oct-18 00:00N 49°13' W 122°50'0 0.0
2017-Oct-17 23:30N 49°13' W 122°50'0 0.0
2017-Oct-17 23:00N 49°13' W 122°50'0 0.0
2017-Oct-17 22:30N 49°13' W 122°50'0 0.0
2017-Oct-17 22:00N 49°13' W 122°50'0 0.1
2017-Oct-17 21:31N 49°13' W 122°50'1 2.6
2017-Oct-17 21:00N 49°13' W 122°52'2 3.4
2017-Oct-17 20:30N 49°12' W 122°54'2 3.6
2017-Oct-17 20:00N 49°10' W 122°56'2 4.3
2017-Oct-17 19:30N 49°09' W 122°59'2 5.0
2017-Oct-17 19:00N 49°09' W 123°02'2 4.4
2017-Oct-17 18:30N 49°07' W 123°05'2 4.2
2017-Oct-17 18:00N 49°07' W 123°08'2 3.9
2017-Oct-17 17:30N 49°07' W 123°11'2 4.0
2017-Oct-17 17:00N 49°08' W 123°13'2 3.9
2017-Oct-17 16:30N 49°07' W 123°16'2 4.1
2017-Oct-17 16:00N 49°06' W 123°19'1 2.3
2017-Oct-17 15:30N 49°06' W 123°20'1 2.6
2017-Oct-17 15:00N 49°07' W 123°22'1 2.9
2017-Oct-17 14:30N 49°08' W 123°24'1 2.8
2017-Oct-17 14:00N 49°09' W 123°25'1 2.1
2017-Oct-17 13:30N 49°10' W 123°26'1 2.1
2017-Oct-17 13:00N 49°10' W 123°28'1 2.7
2017-Oct-17 12:30N 49°11' W 123°29'1 2.8
2017-Oct-17 12:00N 49°12' W 123°31'2 4.1
2017-Oct-17 11:30N 49°13' W 123°34'2 4.6
2017-Oct-17 11:00N 49°14' W 123°36'2 3.7
2017-Oct-17 10:30N 49°16' W 123°39'2 3.1
2017-Oct-17 10:00N 49°16' W 123°41'2 3.8
2017-Oct-17 09:30N 49°18' W 123°43'2 4.2
2017-Oct-17 09:00N 49°19' W 123°45'2 4.4
2017-Oct-17 08:30N 49°20' W 123°48'2 4.1
2017-Oct-17 08:00N 49°21' W 123°50'2 4.2
2017-Oct-17 07:30N 49°23' W 123°53'2 4.2
2017-Oct-17 07:00N 49°24' W 123°56'2 4.5
2017-Oct-17 06:30N 49°25' W 123°59'2 4.6
2017-Oct-17 06:01N 49°26' W 124°02'2 4.1
2017-Oct-17 05:30N 49°28' W 124°04'2 4.6
2017-Oct-17 05:00N 49°29' W 124°07'2 5.0
2017-Oct-17 04:30N 49°30' W 124°10'2 5.0
2017-Oct-17 04:00N 49°31' W 124°14'3 5.3
2017-Oct-17 03:30N 49°33' W 124°17'3 5.7
2017-Oct-17 03:00N 49°34' W 124°21'3 5.5
2017-Oct-17 02:30N 49°35' W 124°25'2 4.7
2017-Oct-17 02:00N 49°36' W 124°28'2 4.4
2017-Oct-17 01:30N 49°38' W 124°31'2 4.1
2017-Oct-17 01:00N 49°39' W 124°33'2 4.2
2017-Oct-17 00:30N 49°40' W 124°36'2 4.4
2017-Oct-17 00:00N 49°42' W 124°39'2 4.4
2017-Oct-16 23:30N 49°43' W 124°41'2 4.3
2017-Oct-16 23:00N 49°44' W 124°44'2 4.6
2017-Oct-16 22:30N 49°46' W 124°47'2 4.5
2017-Oct-16 22:00N 49°47' W 124°50'2 4.5
2017-Oct-16 21:30N 49°48' W 124°52'2 4.1
2017-Oct-16 21:00N 49°50' W 124°55'2 4.2
2017-Oct-16 20:30N 49°51' W 124°57'2 3.9
2017-Oct-16 20:00N 49°52' W 124°60'2 4.2
2017-Oct-16 19:30N 49°54' W 125°02'2 4.1
2017-Oct-16 19:00N 49°55' W 125°05'2 4.3
2017-Oct-16 18:30N 49°56' W 125°08'3 5.2
2017-Oct-16 18:00N 49°58' W 125°11'4 7.2
2017-Oct-16 17:30N 50°01' W 125°13'4 8.0
2017-Oct-16 17:00N 50°05' W 125°16'3 5.2
2017-Oct-16 16:30N 50°07' W 125°18'2 4.7
2017-Oct-16 16:00N 50°08' W 125°21'2 3.9
2017-Oct-16 15:30N 50°10' W 125°21'2 4.4
2017-Oct-16 15:00N 50°12' W 125°22'2 3.2
2017-Oct-16 14:30N 50°14' W 125°23'1 1.3
2017-Oct-16 13:30N 50°12' W 125°22'1 1.1
2017-Oct-16 13:00N 50°12' W 125°22'1 1.8
2017-Oct-16 12:30N 50°13' W 125°23'1 2.1
2017-Oct-16 12:00N 50°14' W 125°23'1 2.6
2017-Oct-16 11:30N 50°15' W 125°23'0 0.5
2017-Oct-16 11:00N 50°15' W 125°23'2 4.3
2017-Oct-16 10:30N 50°13' W 125°22'1 2.5
2017-Oct-16 10:00N 50°12' W 125°22'2 3.6
2017-Oct-16 09:30N 50°13' W 125°23'2 3.8
2017-Oct-16 09:00N 50°15' W 125°23'2 3.8
2017-Oct-16 08:30N 50°17' W 125°24'2 4.1
2017-Oct-16 08:00N 50°19' W 125°25'2 4.1
2017-Oct-16 07:30N 50°20' W 125°27'3 6.1
2017-Oct-16 07:00N 50°21' W 125°32'3 4.8
2017-Oct-16 06:24N 50°22' W 125°36'2 4.0
2017-Oct-16 06:00N 50°22' W 125°39'3 5.7
2017-Oct-16 05:30N 50°22' W 125°43'24 6.1
2017-Oct-16 01:39N 50°29' W 126°18'5 5.2
2017-Oct-16 00:42N 50°30' W 126°26'3 4.6
2017-Oct-16 00:09N 50°30' W 126°30'1 4.9
2017-Oct-15 23:57N 50°30' W 126°31'5 5.0
2017-Oct-15 22:53N 50°32' W 126°39'2 4.1
2017-Oct-15 22:26N 50°33' W 126°42'3 4.6
2017-Oct-15 21:45N 50°36' W 126°43'1 3.1
2017-Oct-15 21:29N 50°36' W 126°44'3 5.3
2017-Oct-15 21:00N 50°38' W 126°47'3 6.4
2017-Oct-15 20:27N 50°40' W 126°51'3 6.5
2017-Oct-15 19:57N 50°42' W 126°55'3 6.4
2017-Oct-15 19:29N 50°43' W 126°60'4 6.0
2017-Oct-15 18:53N 50°44' W 127°05'2 6.2
2017-Oct-15 18:30N 50°45' W 127°09'3 6.2
2017-Oct-15 18:00N 50°48' W 127°12'3 6.2
2017-Oct-15 17:30N 50°50' W 127°15'3 6.4
2017-Oct-15 17:00N 50°52' W 127°18'3 6.3
2017-Oct-15 16:30N 50°54' W 127°22'4 7.0
2017-Oct-15 16:00N 50°56' W 127°27'3 6.9
2017-Oct-15 15:30N 50°58' W 127°31'3 6.5
2017-Oct-15 15:00N 51°00' W 127°35'6 6.3
2017-Oct-15 14:00N 51°05' W 127°43'3 5.8
2017-Oct-15 13:30N 51°07' W 127°46'3 5.9
2017-Oct-15 13:00N 51°08' W 127°50'3 5.3
2017-Oct-15 12:30N 51°11' W 127°51'3 5.7
2017-Oct-15 12:00N 51°14' W 127°53'3 5.9
2017-Oct-15 11:30N 51°17' W 127°53'3 6.0
2017-Oct-15 11:00N 51°20' W 127°54'3 6.2
2017-Oct-15 10:30N 51°23' W 127°53'3 6.3
2017-Oct-15 10:00N 51°26' W 127°51'3 6.1
2017-Oct-15 09:30N 51°29' W 127°51'3 6.5
2017-Oct-15 09:00N 51°32' W 127°52'3 6.5
2017-Oct-15 08:30N 51°35' W 127°53'3 6.5
2017-Oct-15 08:00N 51°38' W 127°54'3 6.5
2017-Oct-15 07:30N 51°41' W 127°56'3 6.4
2017-Oct-15 07:00N 51°44' W 127°57'3 6.2
2017-Oct-15 06:30N 51°47' W 127°56'3 6.0
2017-Oct-15 06:00N 51°50' W 127°56'3 6.0
2017-Oct-15 05:30N 51°53' W 127°56'3 6.2
2017-Oct-15 05:00N 51°57' W 127°56'3 6.1
2017-Oct-15 04:30N 51°60' W 127°56'3 5.4
2017-Oct-15 04:00N 52°02' W 127°55'2 3.9
2017-Oct-15 03:30N 52°04' W 127°57'3 7.0
2017-Oct-15 03:00N 52°05' W 128°02'3 6.7
2017-Oct-15 02:30N 52°06' W 128°07'3 5.5
2017-Oct-15 02:00N 52°08' W 128°08'3 5.0
2017-Oct-15 01:29N 52°11' W 128°07'2 3.5
2017-Oct-15 01:00N 52°12' W 128°08'3 6.1
2017-Oct-15 00:30N 52°14' W 128°12'3 5.0
2017-Oct-15 00:00N 52°15' W 128°16'4 7.7
2017-Oct-14 23:29N 52°15' W 128°23'3 6.3
2017-Oct-14 23:00N 52°16' W 128°27'3 5.6
2017-Oct-14 22:30N 52°18' W 128°29'3 5.2
2017-Oct-14 22:00N 52°21' W 128°31'2 4.9
2017-Oct-14 21:30N 52°23' W 128°31'3 5.8
2017-Oct-14 21:00N 52°26' W 128°29'8 6.7
2017-Oct-14 19:49N 52°34' W 128°28'73 5.0
2017-Oct-14 05:20N 53°24' W 129°55'3 6.9
2017-Oct-14 04:50N 53°27' W 129°58'2 7.1
2017-Oct-14 04:30N 53°29' W 130°01'4 6.6
2017-Oct-14 03:58N 53°31' W 130°06'8 6.5
2017-Oct-14 02:48N 53°35' W 130°16'5 6.5
2017-Oct-14 02:03N 53°38' W 130°23'2 6.6
2017-Oct-14 01:48N 53°39' W 130°26'2 7.2
2017-Oct-14 01:28N 53°40' W 130°29'3 7.1
2017-Oct-14 01:00N 53°42' W 130°33'3 6.8
2017-Oct-14 00:30N 53°45' W 130°37'3 6.8
2017-Oct-14 00:00N 53°47' W 130°41'3 6.8
2017-Oct-13 23:30N 53°49' W 130°45'3 6.6
2017-Oct-13 23:00N 53°52' W 130°49'3 6.8
2017-Oct-13 22:30N 53°54' W 130°53'4 7.3
2017-Oct-13 22:00N 53°57' W 130°58'4 7.5
2017-Oct-13 21:30N 53°60' W 131°02'4 7.5
2017-Oct-13 21:00N 54°03' W 131°06'4 7.3
2017-Oct-13 20:30N 54°05' W 131°10'4 7.1
2017-Oct-13 20:00N 54°08' W 131°14'3 6.7
2017-Oct-13 19:30N 54°11' W 131°18'3 6.5
2017-Oct-13 19:00N 54°13' W 131°22'3 6.1
2017-Oct-13 18:30N 54°15' W 131°25'3 6.4
2017-Oct-13 18:00N 54°17' W 131°30'  
2017-Oct-10 03:43N 54°19' W 131°32'2 7.9
2017-Oct-10 03:29N 54°19' W 131°29'4 8.0
2017-Oct-10 03:00N 54°20' W 131°22'4 7.9
2017-Oct-10 02:30N 54°20' W 131°16'4 8.3
2017-Oct-10 02:00N 54°20' W 131°09'4 8.1
2017-Oct-10 01:30N 54°20' W 131°02'4 8.3
2017-Oct-10 01:00N 54°19' W 130°55'4 7.6
2017-Oct-10 00:30N 54°17' W 130°49'4 8.4
2017-Oct-10 00:00N 54°15' W 130°43'4 8.4
2017-Oct-09 23:30N 54°14' W 130°36'4 8.5
2017-Oct-09 23:00N 54°13' W 130°29'4 7.1
2017-Oct-09 22:31N 54°13' W 130°23'3 5.6
2017-Oct-09 22:00N 54°16' W 130°21'3 6.2
2017-Oct-09 21:30N 54°19' W 130°21'3 6.5
2017-Oct-09 21:00N 54°21' W 130°17'0 0.6
2017-Oct-09 20:30N 54°21' W 130°16'0 0.1
2017-Oct-09 20:00N 54°21' W 130°16'0 0.0
2017-Oct-09 19:30N 54°21' W 130°16'0 0.0
2017-Oct-09 19:00N 54°21' W 130°16'0 0.1
2017-Oct-09 18:30N 54°21' W 130°16'0 0.1
2017-Oct-09 18:00N 54°21' W 130°16'0 0.0
2017-Oct-09 17:30N 54°21' W 130°16'0 0.0
2017-Oct-09 17:00N 54°21' W 130°16'0 0.0
2017-Oct-09 16:30N 54°21' W 130°16'0 0.0
2017-Oct-09 16:00N 54°21' W 130°16'0 0.0
2017-Oct-09 15:30N 54°21' W 130°16'0 0.0
2017-Oct-09 15:00N 54°21' W 130°16'0 0.0
2017-Oct-09 14:30N 54°21' W 130°16'0 0.0
2017-Oct-09 14:00N 54°21' W 130°16'0 0.0
2017-Oct-09 13:30N 54°21' W 130°16'0 0.0
2017-Oct-09 13:00N 54°21' W 130°16'0 0.0
2017-Oct-09 12:30N 54°21' W 130°16'0 0.0
2017-Oct-09 12:00N 54°21' W 130°16'0 0.0
2017-Oct-09 11:30N 54°21' W 130°16'0 0.1
2017-Oct-09 11:00N 54°21' W 130°16'0 0.1
2017-Oct-09 10:30N 54°21' W 130°16'0 0.0
2017-Oct-09 10:00N 54°21' W 130°16'0 0.1
2017-Oct-09 09:30N 54°21' W 130°16'0 0.0
2017-Oct-09 09:00N 54°21' W 130°16'0 0.0
2017-Oct-09 08:30N 54°21' W 130°16'0 0.1
2017-Oct-09 08:00N 54°21' W 130°16'0 0.0
2017-Oct-09 07:30N 54°21' W 130°16'0 0.0
2017-Oct-09 07:00N 54°21' W 130°16'0 0.0
2017-Oct-09 06:30N 54°21' W 130°16'0 0.0
2017-Oct-09 06:00N 54°21' W 130°16'3 5.2
2017-Oct-09 05:30N 54°19' W 130°19'0 0.0
2017-Oct-09 05:00N 54°19' W 130°19'0 0.0
2017-Oct-09 04:30N 54°19' W 130°19'0 0.0
2017-Oct-09 04:00N 54°19' W 130°19'0 0.0
2017-Oct-09 03:30N 54°19' W 130°19'2 4.9
2017-Oct-09 03:00N 54°21' W 130°16'0 0.2
2017-Oct-09 02:30N 54°21' W 130°16'0 0.0
2017-Oct-09 02:00N 54°21' W 130°16'0 0.0
2017-Oct-09 01:30N 54°21' W 130°16'0 0.0
2017-Oct-09 01:00N 54°21' W 130°16'0 0.0
2017-Oct-09 00:30N 54°21' W 130°16'0 0.0
2017-Oct-09 00:00N 54°21' W 130°16'0 0.0
2017-Oct-08 23:30N 54°21' W 130°16'0 0.0
2017-Oct-08 23:00N 54°21' W 130°16'0 0.0
2017-Oct-08 22:30N 54°21' W 130°16'0 0.0
2017-Oct-08 22:00N 54°21' W 130°16'0 0.0
2017-Oct-08 21:30N 54°21' W 130°16'0 0.0
2017-Oct-08 21:00N 54°21' W 130°16'0 0.0
2017-Oct-08 20:30N 54°21' W 130°16'0 0.0
2017-Oct-08 20:00N 54°21' W 130°16'0 0.0
2017-Oct-08 19:30N 54°21' W 130°16'0 0.0
2017-Oct-08 19:00N 54°21' W 130°16'0 0.0
2017-Oct-08 18:30N 54°21' W 130°16'0 0.0
2017-Oct-08 18:00N 54°21' W 130°16'0 0.0
2017-Oct-08 17:30N 54°21' W 130°16'0 0.0
2017-Oct-08 17:00N 54°21' W 130°16'0 0.0
2017-Oct-08 16:30N 54°21' W 130°16'0 0.0
2017-Oct-08 16:01N 54°21' W 130°16'0 0.0
2017-Oct-08 15:30N 54°21' W 130°16'0 0.0
2017-Oct-08 15:00N 54°21' W 130°16'0 0.2
2017-Oct-08 14:30N 54°21' W 130°16'1 1.7
2017-Oct-08 14:00N 54°21' W 130°17'3 6.2
2017-Oct-08 13:30N 54°19' W 130°21'3 5.0
2017-Oct-08 13:00N 54°16' W 130°22'3 5.1
2017-Oct-08 12:30N 54°14' W 130°21'3 5.4
2017-Oct-08 12:00N 54°11' W 130°21'2 3.8
2017-Oct-08 11:30N 54°09' W 130°23'3 6.5
2017-Oct-08 11:00N 54°07' W 130°28'3 6.4
2017-Oct-08 10:30N 54°05' W 130°32'3 6.9
2017-Oct-08 10:00N 54°03' W 130°35'4 7.1
2017-Oct-08 09:30N 54°04' W 130°41'3 7.0
2017-Oct-08 09:00N 54°02' W 130°47'4 7.1
2017-Oct-08 08:30N 54°00' W 130°52'4 7.0
2017-Oct-08 08:00N 53°58' W 130°55'3 6.9
2017-Oct-08 07:30N 53°54' W 130°56'3 6.8
2017-Oct-08 07:00N 53°51' W 130°56'3 5.1
2017-Oct-08 06:30N 53°48' W 130°57'3 6.8
2017-Oct-08 06:00N 53°45' W 130°57'3 6.5
2017-Oct-08 05:30N 53°42' W 130°57'3 6.2
2017-Oct-08 05:00N 53°38' W 130°58'  
Track history (hours):
 
Tides and Currents Weather Stations Pressure Air Temp Water Temp Dewpoint Dewpoint Depression Visibility Wind Speed Wind Dir Waves Ship Positions

Arctic Taglu

Last reported at 2017-Oct-18 00:00 UTC. Time now 2017-Oct-18 00:26 UTC.
Position N 49°13' W 122°50'.

Length 33 m; draft 6 m.

Type: Tug. MMSI: 316003483.

Date/timePositionNaut miles runAvg speedWind from/ knotsBaromVisibWave heightAir tempDewpointWater temp
2017-Oct-18 00:00N 49°13' W 122°50'0 0.0
2017-Oct-17 23:30N 49°13' W 122°50'0 0.0
2017-Oct-17 23:00N 49°13' W 122°50'0 0.0
2017-Oct-17 22:30N 49°13' W 122°50'0 0.0
2017-Oct-17 22:00N 49°13' W 122°50'0 0.1
2017-Oct-17 21:31N 49°13' W 122°50'1 2.6
2017-Oct-17 21:00N 49°13' W 122°52'2 3.4
2017-Oct-17 20:30N 49°12' W 122°54'2 3.6
2017-Oct-17 20:00N 49°10' W 122°56'2 4.3
2017-Oct-17 19:30N 49°09' W 122°59'2 5.0
2017-Oct-17 19:00N 49°09' W 123°02'2 4.4
2017-Oct-17 18:30N 49°07' W 123°05'2 4.2
2017-Oct-17 18:00N 49°07' W 123°08'2 3.9
2017-Oct-17 17:30N 49°07' W 123°11'2 4.0
2017-Oct-17 17:00N 49°08' W 123°13'2 3.9
2017-Oct-17 16:30N 49°07' W 123°16'2 4.1
2017-Oct-17 16:00N 49°06' W 123°19'1 2.3
2017-Oct-17 15:30N 49°06' W 123°20'1 2.6
2017-Oct-17 15:00N 49°07' W 123°22'1 2.9
2017-Oct-17 14:30N 49°08' W 123°24'1 2.8
2017-Oct-17 14:00N 49°09' W 123°25'1 2.1
2017-Oct-17 13:30N 49°10' W 123°26'1 2.1
2017-Oct-17 13:00N 49°10' W 123°28'1 2.7
2017-Oct-17 12:30N 49°11' W 123°29'1 2.8
2017-Oct-17 12:00N 49°12' W 123°31'2 4.1
2017-Oct-17 11:30N 49°13' W 123°34'2 4.6
2017-Oct-17 11:00N 49°14' W 123°36'2 3.7
2017-Oct-17 10:30N 49°16' W 123°39'2 3.1
2017-Oct-17 10:00N 49°16' W 123°41'2 3.8
2017-Oct-17 09:30N 49°18' W 123°43'2 4.2
2017-Oct-17 09:00N 49°19' W 123°45'2 4.4
2017-Oct-17 08:30N 49°20' W 123°48'2 4.1
2017-Oct-17 08:00N 49°21' W 123°50'2 4.2
2017-Oct-17 07:30N 49°23' W 123°53'2 4.2
2017-Oct-17 07:00N 49°24' W 123°56'2 4.5
2017-Oct-17 06:30N 49°25' W 123°59'2 4.6
2017-Oct-17 06:01N 49°26' W 124°02'2 4.1
2017-Oct-17 05:30N 49°28' W 124°04'2 4.6
2017-Oct-17 05:00N 49°29' W 124°07'2 5.0
2017-Oct-17 04:30N 49°30' W 124°10'2 5.0
2017-Oct-17 04:00N 49°31' W 124°14'3 5.3
2017-Oct-17 03:30N 49°33' W 124°17'3 5.7
2017-Oct-17 03:00N 49°34' W 124°21'3 5.5
2017-Oct-17 02:30N 49°35' W 124°25'2 4.7
2017-Oct-17 02:00N 49°36' W 124°28'2 4.4
2017-Oct-17 01:30N 49°38' W 124°31'2 4.1
2017-Oct-17 01:00N 49°39' W 124°33'2 4.2
2017-Oct-17 00:30N 49°40' W 124°36'2 4.4
2017-Oct-17 00:00N 49°42' W 124°39'2 4.4
2017-Oct-16 23:30N 49°43' W 124°41'2 4.3
2017-Oct-16 23:00N 49°44' W 124°44'2 4.6
2017-Oct-16 22:30N 49°46' W 124°47'2 4.5
2017-Oct-16 22:00N 49°47' W 124°50'2 4.5
2017-Oct-16 21:30N 49°48' W 124°52'2 4.1
2017-Oct-16 21:00N 49°50' W 124°55'2 4.2
2017-Oct-16 20:30N 49°51' W 124°57'2 3.9
2017-Oct-16 20:00N 49°52' W 124°60'2 4.2
2017-Oct-16 19:30N 49°54' W 125°02'2 4.1
2017-Oct-16 19:00N 49°55' W 125°05'2 4.3
2017-Oct-16 18:30N 49°56' W 125°08'3 5.2
2017-Oct-16 18:00N 49°58' W 125°11'4 7.2
2017-Oct-16 17:30N 50°01' W 125°13'4 8.0
2017-Oct-16 17:00N 50°05' W 125°16'3 5.2
2017-Oct-16 16:30N 50°07' W 125°18'2 4.7
2017-Oct-16 16:00N 50°08' W 125°21'2 3.9
2017-Oct-16 15:30N 50°10' W 125°21'2 4.4
2017-Oct-16 15:00N 50°12' W 125°22'2 3.2
2017-Oct-16 14:30N 50°14' W 125°23'1 1.3
2017-Oct-16 13:30N 50°12' W 125°22'1 1.1
2017-Oct-16 13:00N 50°12' W 125°22'1 1.8
2017-Oct-16 12:30N 50°13' W 125°23'1 2.1
2017-Oct-16 12:00N 50°14' W 125°23'1 2.6
2017-Oct-16 11:30N 50°15' W 125°23'0 0.5
2017-Oct-16 11:00N 50°15' W 125°23'2 4.3
2017-Oct-16 10:30N 50°13' W 125°22'1 2.5
2017-Oct-16 10:00N 50°12' W 125°22'2 3.6
2017-Oct-16 09:30N 50°13' W 125°23'2 3.8
2017-Oct-16 09:00N 50°15' W 125°23'2 3.8
2017-Oct-16 08:30N 50°17' W 125°24'2 4.1
2017-Oct-16 08:00N 50°19' W 125°25'2 4.1
2017-Oct-16 07:30N 50°20' W 125°27'3 6.1
2017-Oct-16 07:00N 50°21' W 125°32'3 4.8
2017-Oct-16 06:24N 50°22' W 125°36'2 4.0
2017-Oct-16 06:00N 50°22' W 125°39'3 5.7
2017-Oct-16 05:30N 50°22' W 125°43'24 6.1
2017-Oct-16 01:39N 50°29' W 126°18'5 5.2
2017-Oct-16 00:42N 50°30' W 126°26'3 4.6
2017-Oct-16 00:09N 50°30' W 126°30'1 4.9
2017-Oct-15 23:57N 50°30' W 126°31'5 5.0
2017-Oct-15 22:53N 50°32' W 126°39'2 4.1
2017-Oct-15 22:26N 50°33' W 126°42'3 4.6
2017-Oct-15 21:45N 50°36' W 126°43'1 3.1
2017-Oct-15 21:29N 50°36' W 126°44'3 5.3
2017-Oct-15 21:00N 50°38' W 126°47'3 6.4
2017-Oct-15 20:27N 50°40' W 126°51'3 6.5
2017-Oct-15 19:57N 50°42' W 126°55'3 6.4
2017-Oct-15 19:29N 50°43' W 126°60'4 6.0
2017-Oct-15 18:53N 50°44' W 127°05'2 6.2
2017-Oct-15 18:30N 50°45' W 127°09'3 6.2
2017-Oct-15 18:00N 50°48' W 127°12'3 6.2
2017-Oct-15 17:30N 50°50' W 127°15'3 6.4
2017-Oct-15 17:00N 50°52' W 127°18'3 6.3
2017-Oct-15 16:30N 50°54' W 127°22'4 7.0
2017-Oct-15 16:00N 50°56' W 127°27'3 6.9
2017-Oct-15 15:30N 50°58' W 127°31'3 6.5
2017-Oct-15 15:00N 51°00' W 127°35'6 6.3
2017-Oct-15 14:00N 51°05' W 127°43'3 5.8
2017-Oct-15 13:30N 51°07' W 127°46'3 5.9
2017-Oct-15 13:00N 51°08' W 127°50'3 5.3
2017-Oct-15 12:30N 51°11' W 127°51'3 5.7
2017-Oct-15 12:00N 51°14' W 127°53'3 5.9
2017-Oct-15 11:30N 51°17' W 127°53'3 6.0
2017-Oct-15 11:00N 51°20' W 127°54'3 6.2
2017-Oct-15 10:30N 51°23' W 127°53'3 6.3
2017-Oct-15 10:00N 51°26' W 127°51'3 6.1
2017-Oct-15 09:30N 51°29' W 127°51'3 6.5
2017-Oct-15 09:00N 51°32' W 127°52'3 6.5
2017-Oct-15 08:30N 51°35' W 127°53'3 6.5
2017-Oct-15 08:00N 51°38' W 127°54'3 6.5
2017-Oct-15 07:30N 51°41' W 127°56'3 6.4
2017-Oct-15 07:00N 51°44' W 127°57'3 6.2
2017-Oct-15 06:30N 51°47' W 127°56'3 6.0
2017-Oct-15 06:00N 51°50' W 127°56'3 6.0
2017-Oct-15 05:30N 51°53' W 127°56'3 6.2
2017-Oct-15 05:00N 51°57' W 127°56'3 6.1
2017-Oct-15 04:30N 51°60' W 127°56'3 5.4
2017-Oct-15 04:00N 52°02' W 127°55'2 3.9
2017-Oct-15 03:30N 52°04' W 127°57'3 7.0
2017-Oct-15 03:00N 52°05' W 128°02'3 6.7
2017-Oct-15 02:30N 52°06' W 128°07'3 5.5
2017-Oct-15 02:00N 52°08' W 128°08'3 5.0
2017-Oct-15 01:29N 52°11' W 128°07'2 3.5
2017-Oct-15 01:00N 52°12' W 128°08'3 6.1
2017-Oct-15 00:30N 52°14' W 128°12'3 5.0
2017-Oct-15 00:00N 52°15' W 128°16'4 7.7
2017-Oct-14 23:29N 52°15' W 128°23'3 6.3
2017-Oct-14 23:00N 52°16' W 128°27'3 5.6
2017-Oct-14 22:30N 52°18' W 128°29'3 5.2
2017-Oct-14 22:00N 52°21' W 128°31'2 4.9
2017-Oct-14 21:30N 52°23' W 128°31'3 5.8
2017-Oct-14 21:00N 52°26' W 128°29'8 6.7
2017-Oct-14 19:49N 52°34' W 128°28'73 5.0
2017-Oct-14 05:20N 53°24' W 129°55'3 6.9
2017-Oct-14 04:50N 53°27' W 129°58'2 7.1
2017-Oct-14 04:30N 53°29' W 130°01'4 6.6
2017-Oct-14 03:58N 53°31' W 130°06'8 6.5
2017-Oct-14 02:48N 53°35' W 130°16'5 6.5
2017-Oct-14 02:03N 53°38' W 130°23'2 6.6
2017-Oct-14 01:48N 53°39' W 130°26'2 7.2
2017-Oct-14 01:28N 53°40' W 130°29'3 7.1
2017-Oct-14 01:00N 53°42' W 130°33'3 6.8
2017-Oct-14 00:30N 53°45' W 130°37'3 6.8
2017-Oct-14 00:00N 53°47' W 130°41'3 6.8
2017-Oct-13 23:30N 53°49' W 130°45'3 6.6
2017-Oct-13 23:00N 53°52' W 130°49'3 6.8
2017-Oct-13 22:30N 53°54' W 130°53'4 7.3
2017-Oct-13 22:00N 53°57' W 130°58'4 7.5
2017-Oct-13 21:30N 53°60' W 131°02'4 7.5
2017-Oct-13 21:00N 54°03' W 131°06'4 7.3
2017-Oct-13 20:30N 54°05' W 131°10'4 7.1
2017-Oct-13 20:00N 54°08' W 131°14'3 6.7
2017-Oct-13 19:30N 54°11' W 131°18'3 6.5
2017-Oct-13 19:00N 54°13' W 131°22'3 6.1
2017-Oct-13 18:30N 54°15' W 131°25'3 6.4
2017-Oct-13 18:00N 54°17' W 131°30'  
2017-Oct-10 03:43N 54°19' W 131°32'2 7.9
2017-Oct-10 03:29N 54°19' W 131°29'4 8.0
2017-Oct-10 03:00N 54°20' W 131°22'4 7.9
2017-Oct-10 02:30N 54°20' W 131°16'4 8.3
2017-Oct-10 02:00N 54°20' W 131°09'4 8.1
2017-Oct-10 01:30N 54°20' W 131°02'4 8.3
2017-Oct-10 01:00N 54°19' W 130°55'4 7.6
2017-Oct-10 00:30N 54°17' W 130°49'4 8.4
2017-Oct-10 00:00N 54°15' W 130°43'4 8.4
2017-Oct-09 23:30N 54°14' W 130°36'4 8.5
2017-Oct-09 23:00N 54°13' W 130°29'4 7.1
2017-Oct-09 22:31N 54°13' W 130°23'3 5.6
2017-Oct-09 22:00N 54°16' W 130°21'3 6.2
2017-Oct-09 21:30N 54°19' W 130°21'3 6.5
2017-Oct-09 21:00N 54°21' W 130°17'0 0.6
2017-Oct-09 20:30N 54°21' W 130°16'0 0.1
2017-Oct-09 20:00N 54°21' W 130°16'0 0.0
2017-Oct-09 19:30N 54°21' W 130°16'0 0.0
2017-Oct-09 19:00N 54°21' W 130°16'0 0.1
2017-Oct-09 18:30N 54°21' W 130°16'0 0.1
2017-Oct-09 18:00N 54°21' W 130°16'0 0.0
2017-Oct-09 17:30N 54°21' W 130°16'0 0.0
2017-Oct-09 17:00N 54°21' W 130°16'0 0.0
2017-Oct-09 16:30N 54°21' W 130°16'0 0.0
2017-Oct-09 16:00N 54°21' W 130°16'0 0.0
2017-Oct-09 15:30N 54°21' W 130°16'0 0.0
2017-Oct-09 15:00N 54°21' W 130°16'0 0.0
2017-Oct-09 14:30N 54°21' W 130°16'0 0.0
2017-Oct-09 14:00N 54°21' W 130°16'0 0.0
2017-Oct-09 13:30N 54°21' W 130°16'0 0.0
2017-Oct-09 13:00N 54°21' W 130°16'0 0.0
2017-Oct-09 12:30N 54°21' W 130°16'0 0.0
2017-Oct-09 12:00N 54°21' W 130°16'0 0.0
2017-Oct-09 11:30N 54°21' W 130°16'0 0.1
2017-Oct-09 11:00N 54°21' W 130°16'0 0.1
2017-Oct-09 10:30N 54°21' W 130°16'0 0.0
2017-Oct-09 10:00N 54°21' W 130°16'0 0.1
2017-Oct-09 09:30N 54°21' W 130°16'0 0.0
2017-Oct-09 09:00N 54°21' W 130°16'0 0.0
2017-Oct-09 08:30N 54°21' W 130°16'0 0.1
2017-Oct-09 08:00N 54°21' W 130°16'0 0.0
2017-Oct-09 07:30N 54°21' W 130°16'0 0.0
2017-Oct-09 07:00N 54°21' W 130°16'0 0.0
2017-Oct-09 06:30N 54°21' W 130°16'0 0.0
2017-Oct-09 06:00N 54°21' W 130°16'3 5.2
2017-Oct-09 05:30N 54°19' W 130°19'0 0.0
2017-Oct-09 05:00N 54°19' W 130°19'0 0.0
2017-Oct-09 04:30N 54°19' W 130°19'0 0.0
2017-Oct-09 04:00N 54°19' W 130°19'0 0.0
2017-Oct-09 03:30N 54°19' W 130°19'2 4.9
2017-Oct-09 03:00N 54°21' W 130°16'0 0.2
2017-Oct-09 02:30N 54°21' W 130°16'0 0.0
2017-Oct-09 02:00N 54°21' W 130°16'0 0.0
2017-Oct-09 01:30N 54°21' W 130°16'0 0.0
2017-Oct-09 01:00N 54°21' W 130°16'0 0.0
2017-Oct-09 00:30N 54°21' W 130°16'0 0.0
2017-Oct-09 00:00N 54°21' W 130°16'0 0.0
2017-Oct-08 23:30N 54°21' W 130°16'0 0.0
2017-Oct-08 23:00N 54°21' W 130°16'0 0.0
2017-Oct-08 22:30N 54°21' W 130°16'0 0.0
2017-Oct-08 22:00N 54°21' W 130°16'0 0.0
2017-Oct-08 21:30N 54°21' W 130°16'0 0.0
2017-Oct-08 21:00N 54°21' W 130°16'0 0.0
2017-Oct-08 20:30N 54°21' W 130°16'0 0.0
2017-Oct-08 20:00N 54°21' W 130°16'0 0.0
2017-Oct-08 19:30N 54°21' W 130°16'0 0.0
2017-Oct-08 19:00N 54°21' W 130°16'0 0.0
2017-Oct-08 18:30N 54°21' W 130°16'0 0.0
2017-Oct-08 18:00N 54°21' W 130°16'0 0.0
2017-Oct-08 17:30N 54°21' W 130°16'0 0.0
2017-Oct-08 17:00N 54°21' W 130°16'0 0.0
2017-Oct-08 16:30N 54°21' W 130°16'0 0.0
2017-Oct-08 16:01N 54°21' W 130°16'0 0.0
2017-Oct-08 15:30N 54°21' W 130°16'0 0.0
2017-Oct-08 15:00N 54°21' W 130°16'0 0.2
2017-Oct-08 14:30N 54°21' W 130°16'1 1.7
2017-Oct-08 14:00N 54°21' W 130°17'3 6.2
2017-Oct-08 13:30N 54°19' W 130°21'3 5.0
2017-Oct-08 13:00N 54°16' W 130°22'3 5.1
2017-Oct-08 12:30N 54°14' W 130°21'3 5.4
2017-Oct-08 12:00N 54°11' W 130°21'2 3.8
2017-Oct-08 11:30N 54°09' W 130°23'3 6.5
2017-Oct-08 11:00N 54°07' W 130°28'3 6.4
2017-Oct-08 10:30N 54°05' W 130°32'3 6.9
2017-Oct-08 10:00N 54°03' W 130°35'4 7.1
2017-Oct-08 09:30N 54°04' W 130°41'3 7.0
2017-Oct-08 09:00N 54°02' W 130°47'4 7.1
2017-Oct-08 08:30N 54°00' W 130°52'4 7.0
2017-Oct-08 08:00N 53°58' W 130°55'3 6.9
2017-Oct-08 07:30N 53°54' W 130°56'3 6.8
2017-Oct-08 07:00N 53°51' W 130°56'3 5.1
2017-Oct-08 06:30N 53°48' W 130°57'3 6.8
2017-Oct-08 06:00N 53°45' W 130°57'3 6.5
2017-Oct-08 05:30N 53°42' W 130°57'3 6.2
2017-Oct-08 05:00N 53°38' W 130°58'  

Dump ship's entire track history